Fangxian, China
Current Conditions -  °F | °C
As of 9:00 PM on Saturday 22 Nov 2014 (Local Time) from ZLXY Reporting Station
Light Rain Light Rain  
Wind Chill: 38°   Ceiling: 4000
Heat Index: 41°   Visibility: 0.62mi
Dew Point: 39°   Wind: 4mph
Humidity: 93%   Direction: 250°WSW
Pressure: 30.24"   Gusts: NA
Location:  32.03°N, 110.77°E
Report Text: ZLXY 221300Z 25002MPS 1000 R05L/1900N R05R/P2000 -RA BRSCT007OVC040 05/04 Q1024 NOSIG
Loading
Personal Weather Stations






























Interactive Weather Map New forecast layout! Learn more

10-Day Weather Forecast

Advertisements
Track Severe Weather on mobile